Time;durP1;ratioP1;P1;durP2;ratioP2;P2;SDS_P1;SDS_P2;PMS_P1;PMS_P2;Temp;Humidity;BMP_temperature;BMP_pressure;BME280_temperature;BME280_humidity;BME280_pressure;Samples;Min_cycle;Max_cycle;Signal;HPM_P1;HPM_P2
2023/09/08 00:00:43;;;;;;;6.50;3.80;;;15.00;99.90;;;;;;5018416;28;20207;-60
2023/09/08 00:03:08;;;;;;;6.80;3.30;;;14.90;99.90;;;;;;5023404;28;20190;-60
2023/09/08 00:05:34;;;;;;;7.47;4.20;;;14.90;99.90;;;;;;5024848;28;20190;-60
2023/09/08 00:08:00;;;;;;;5.00;2.73;;;14.90;99.90;;;;;;5020997;28;20824;-60
2023/09/08 00:10:25;;;;;;;9.40;4.00;;;14.90;99.90;;;;;;5018541;28;20199;-59
2023/09/08 00:12:51;;;;;;;11.80;3.43;;;14.80;99.90;;;;;;5023435;28;20179;-59
2023/09/08 00:15:16;;;;;;;8.33;3.50;;;14.80;99.90;;;;;;5026751;28;20241;-60
2023/09/08 00:17:42;;;;;;;6.93;3.33;;;14.70;99.90;;;;;;5023652;28;20576;-59
2023/09/08 00:20:08;;;;;;;5.87;3.10;;;14.80;99.90;;;;;;5024769;28;20273;-60
2023/09/08 00:22:34;;;;;;;6.03;3.57;;;14.80;99.90;;;;;;5030188;28;20289;-59
2023/09/08 00:25:00;;;;;;;4.80;2.60;;;14.70;99.90;;;;;;5018209;28;20969;-60
2023/09/08 00:27:25;;;;;;;16.40;3.80;;;14.70;99.90;;;;;;5031128;28;20675;-60
2023/09/08 00:29:51;;;;;;;6.33;2.93;;;14.70;99.90;;;;;;5027572;28;20183;-59
2023/09/08 00:32:16;;;;;;;5.60;3.33;;;14.70;99.90;;;;;;5019840;28;20225;-59
2023/09/08 00:34:42;;;;;;;5.93;3.67;;;14.60;99.90;;;;;;5027192;28;20730;-60
2023/09/08 00:37:09;;;;;;;9.40;4.07;;;14.60;99.90;;;;;;5023016;28;20250;-60
2023/09/08 00:39:36;;;;;;;5.10;3.10;;;14.60;99.90;;;;;;5025227;28;20174;-60
2023/09/08 00:42:01;;;;;;;5.00;3.20;;;14.50;99.90;;;;;;5019759;28;20423;-59
2023/09/08 00:44:27;;;;;;;8.33;4.07;;;14.50;99.90;;;;;;5017611;28;20746;-59
2023/09/08 00:46:53;;;;;;;4.97;2.80;;;14.50;99.90;;;;;;5031014;28;20193;-60
2023/09/08 00:49:18;;;;;;;7.63;3.53;;;14.40;99.90;;;;;;5029922;28;20209;-60
2023/09/08 00:51:44;;;;;;;4.73;2.97;;;14.40;99.90;;;;;;5019332;28;20232;-59
2023/09/08 00:54:10;;;;;;;6.37;2.27;;;14.30;99.90;;;;;;5016997;28;20207;-60
2023/09/08 00:56:37;;;;;;;3.73;2.60;;;14.40;99.90;;;;;;5031194;28;20187;-59
2023/09/08 00:59:03;;;;;;;7.83;3.47;;;14.40;99.90;;;;;;5016657;28;20433;-59
2023/09/08 01:01:29;;;;;;;6.07;3.20;;;14.30;99.90;;;;;;5017849;28;20421;-59
2023/09/08 01:03:55;;;;;;;6.97;3.53;;;14.30;99.90;;;;;;5030567;28;20898;-59
2023/09/08 01:06:21;;;;;;;9.03;3.30;;;14.30;99.90;;;;;;5031114;28;20430;-60
2023/09/08 01:08:47;;;;;;;10.03;2.90;;;14.30;99.90;;;;;;5017353;28;20185;-60
2023/09/08 01:11:13;;;;;;;8.70;3.47;;;14.30;99.90;;;;;;5023721;28;20475;-59
2023/09/08 01:13:39;;;;;;;8.77;3.00;;;14.30;99.90;;;;;;5025103;28;20425;-60
2023/09/08 01:16:04;;;;;;;8.50;3.53;;;14.30;99.90;;;;;;5022735;28;20189;-59
2023/09/08 01:18:30;;;;;;;8.17;3.20;;;14.20;99.90;;;;;;5024889;28;20923;-59
2023/09/08 01:20:58;;;;;;;5.93;3.50;;;14.20;99.90;;;;;;5030537;28;20178;-60
2023/09/08 01:24:05;;;;;;;5.53;3.50;;;14.20;99.90;;;;;;5030542;28;20182;-60
2023/09/08 01:26:38;;;;;;;10.47;3.50;;;14.10;99.90;;;;;;5001130;28;20466;-60
2023/09/08 01:29:06;;;;;;;6.97;3.10;;;14.10;99.90;;;;;;5028435;28;20890;-59
2023/09/08 01:31:32;;;;;;;5.17;3.40;;;14.10;99.90;;;;;;5029349;28;20468;-60
2023/09/08 01:34:00;;;;;;;5.07;2.90;;;14.10;99.90;;;;;;5025435;28;20566;-59
2023/09/08 01:36:25;;;;;;;6.37;3.60;;;14.10;99.90;;;;;;5016932;28;20468;-59
2023/09/08 01:38:51;;;;;;;8.10;3.23;;;14.00;99.90;;;;;;5021619;28;20535;-60
2023/09/08 01:41:16;;;;;;;4.33;2.60;;;14.00;99.90;;;;;;5026065;28;20701;-59
2023/09/08 01:43:42;;;;;;;8.57;3.97;;;14.00;99.90;;;;;;5021360;28;20194;-60
2023/09/08 01:46:08;;;;;;;9.10;4.20;;;14.00;99.90;;;;;;5023264;28;20721;-59
2023/09/08 01:48:33;;;;;;;5.00;2.40;;;13.90;99.90;;;;;;5019555;28;20266;-60
2023/09/08 01:50:59;;;;;;;5.77;3.17;;;13.90;99.90;;;;;;5017317;28;20628;-59
2023/09/08 01:53:24;;;;;;;6.57;2.97;;;13.90;99.90;;;;;;5021655;28;20188;-60
2023/09/08 01:55:50;;;;;;;9.27;4.00;;;13.90;99.90;;;;;;5025605;28;20233;-59
2023/09/08 01:58:15;;;;;;;7.50;3.07;;;13.80;99.90;;;;;;5030126;28;20643;-59
2023/09/08 02:00:41;;;;;;;8.13;2.97;;;13.80;99.90;;;;;;5030036;28;20188;-60
2023/09/08 02:03:07;;;;;;;5.27;3.10;;;13.80;99.90;;;;;;5021648;28;20194;-59
2023/09/08 02:05:34;;;;;;;6.67;4.10;;;13.80;99.90;;;;;;5023466;28;20182;-60
2023/09/08 02:07:59;;;;;;;7.33;3.80;;;13.90;99.90;;;;;;5018316;28;20174;-59
2023/09/08 02:10:25;;;;;;;6.70;3.63;;;13.90;99.90;;;;;;5016727;28;20419;-59
2023/09/08 02:12:51;;;;;;;5.23;2.83;;;13.80;99.90;;;;;;5021491;28;20258;-59
2023/09/08 02:15:17;;;;;;;7.30;3.60;;;13.70;99.90;;;;;;5024892;28;20241;-60
2023/09/08 02:17:43;;;;;;;12.70;3.80;;;13.70;99.90;;;;;;5029809;28;20417;-60
2023/09/08 02:20:09;;;;;;;7.77;3.67;;;13.70;99.90;;;;;;5029922;28;20178;-59
2023/09/08 02:22:34;;;;;;;4.77;2.83;;;13.70;99.90;;;;;;5030090;28;20472;-59
2023/09/08 02:25:00;;;;;;;4.43;3.10;;;13.60;99.90;;;;;;5016012;28;20261;-59
2023/09/08 02:27:25;;;;;;;5.73;3.27;;;13.60;99.90;;;;;;5029880;28;20277;-60
2023/09/08 02:29:51;;;;;;;5.27;2.80;;;13.60;99.90;;;;;;5025930;28;20562;-60
2023/09/08 02:32:16;;;;;;;8.20;3.90;;;13.60;99.90;;;;;;5018171;28;20193;-60
2023/09/08 02:34:43;;;;;;;5.20;3.27;;;13.60;99.90;;;;;;5024609;28;20576;-59
2023/09/08 02:37:08;;;;;;;5.90;3.60;;;13.60;99.90;;;;;;5022616;28;20198;-59
2023/09/08 02:39:34;;;;;;;5.13;3.27;;;13.50;99.90;;;;;;5023248;28;20473;-60
2023/09/08 02:42:00;;;;;;;9.60;3.60;;;13.50;99.90;;;;;;5019405;28;20202;-60
2023/09/08 02:44:26;;;;;;;14.33;3.47;;;13.50;99.90;;;;;;5019994;28;20191;-59
2023/09/08 02:46:52;;;;;;;9.10;3.30;;;13.50;99.90;;;;;;5025326;28;20179;-60
2023/09/08 02:49:18;;;;;;;6.60;3.43;;;13.40;99.90;;;;;;5027249;28;20436;-60
2023/09/08 02:51:43;;;;;;;6.10;3.73;;;13.30;99.90;;;;;;5021208;28;20251;-59
2023/09/08 02:54:09;;;;;;;6.93;3.80;;;13.30;99.90;;;;;;5032045;28;20321;-60
2023/09/08 02:56:34;;;;;;;6.10;3.30;;;13.40;99.90;;;;;;5020821;28;20209;-60
2023/09/08 02:59:00;;;;;;;5.10;2.57;;;13.40;99.90;;;;;;5019368;28;20179;-59
2023/09/08 03:01:25;;;;;;;7.53;3.90;;;13.30;99.90;;;;;;5020740;28;20178;-59
2023/09/08 03:03:51;;;;;;;7.53;3.30;;;13.40;99.90;;;;;;5020611;28;20183;-60
2023/09/08 03:06:20;;;;;;;5.93;3.50;;;13.40;99.90;;;;;;5026581;28;20628;-60
2023/09/08 03:08:45;;;;;;;6.70;3.43;;;13.40;99.90;;;;;;5027357;28;20631;-60
2023/09/08 03:11:11;;;;;;;4.90;3.07;;;13.30;99.90;;;;;;5021165;28;20428;-60
2023/09/08 03:13:36;;;;;;;6.20;3.83;;;13.30;99.90;;;;;;5031829;28;20301;-60
2023/09/08 03:16:05;;;;;;;5.13;3.20;;;13.30;99.90;;;;;;5019977;28;20178;-60
2023/09/08 03:18:32;;;;;;;4.33;3.03;;;13.30;99.90;;;;;;5020273;28;20307;-60
2023/09/08 03:20:58;;;;;;;4.67;2.93;;;13.30;99.90;;;;;;5033155;28;20424;-59
2023/09/08 03:23:23;;;;;;;5.63;3.03;;;13.30;99.90;;;;;;5030148;28;20508;-60
2023/09/08 03:25:49;;;;;;;7.43;2.67;;;13.30;99.90;;;;;;5027935;28;20320;-59
2023/09/08 03:28:15;;;;;;;7.90;3.10;;;13.30;99.90;;;;;;5034012;28;20678;-59
2023/09/08 03:30:41;;;;;;;6.47;2.87;;;13.20;99.90;;;;;;5033086;28;20680;-60
2023/09/08 03:33:06;;;;;;;9.37;4.20;;;13.10;99.90;;;;;;5048248;28;20181;-59
2023/09/08 03:35:32;;;;;;;8.23;2.73;;;13.10;99.90;;;;;;5043498;28;20331;-60
2023/09/08 03:37:58;;;;;;;4.97;3.37;;;13.10;99.90;;;;;;5052949;28;20247;-60
2023/09/08 03:40:24;;;;;;;8.90;3.43;;;13.10;99.90;;;;;;5052501;28;20261;-60
2023/09/08 03:42:49;;;;;;;7.80;3.70;;;13.10;99.90;;;;;;5050813;28;20495;-59
2023/09/08 03:45:15;;;;;;;5.40;3.53;;;13.10;99.90;;;;;;5040624;28;20279;-60
2023/09/08 03:47:41;;;;;;;7.67;3.57;;;13.20;99.90;;;;;;5052298;28;20183;-60
2023/09/08 03:50:08;;;;;;;5.83;3.33;;;13.10;99.90;;;;;;5052475;28;20209;-60
2023/09/08 03:52:33;;;;;;;6.07;3.50;;;13.10;99.90;;;;;;5052641;28;20194;-59
2023/09/08 03:54:59;;;;;;;6.40;3.27;;;13.10;99.90;;;;;;5042332;28;20464;-59
2023/09/08 03:57:25;;;;;;;5.70;3.43;;;13.10;99.90;;;;;;5047076;28;20631;-60
2023/09/08 03:59:50;;;;;;;6.80;3.67;;;13.10;99.90;;;;;;5044528;28;20181;-59
2023/09/08 04:02:16;;;;;;;4.83;3.70;;;13.10;99.90;;;;;;5032219;28;20233;-60
2023/09/08 04:04:41;;;;;;;8.77;4.23;;;13.10;99.90;;;;;;5039671;28;20184;-59
2023/09/08 04:07:07;;;;;;;6.43;3.00;;;13.00;99.90;;;;;;5052063;28;20190;-60
2023/09/08 04:09:32;;;;;;;5.00;3.43;;;13.00;99.90;;;;;;5052171;28;20697;-60
2023/09/08 04:11:58;;;;;;;7.63;3.57;;;13.00;99.90;;;;;;5038354;28;20189;-60
2023/09/08 04:14:26;;;;;;;4.03;2.87;;;13.10;99.90;;;;;;5051464;28;20842;-59
2023/09/08 04:16:53;;;;;;;8.47;4.30;;;13.00;99.90;;;;;;5051585;28;20178;-59
2023/09/08 04:19:18;;;;;;;5.57;3.27;;;12.90;99.90;;;;;;5043868;28;20471;-59
2023/09/08 04:21:44;;;;;;;8.70;2.93;;;12.90;99.90;;;;;;5033605;28;20452;-60
2023/09/08 04:24:10;;;;;;;6.40;3.60;;;12.90;99.90;;;;;;5049807;28;20186;-60
2023/09/08 04:26:36;;;;;;;6.73;3.23;;;12.90;99.90;;;;;;5033714;28;20190;-59
2023/09/08 04:29:02;;;;;;;8.57;4.17;;;13.00;99.90;;;;;;5034097;28;20459;-60
2023/09/08 04:31:27;;;;;;;8.07;3.87;;;13.00;99.90;;;;;;5046583;28;20424;-59
2023/09/08 04:33:54;;;;;;;6.17;3.20;;;13.00;99.90;;;;;;5048559;28;20317;-59
2023/09/08 04:36:19;;;;;;;9.23;3.30;;;12.90;99.90;;;;;;5045353;28;20197;-60
2023/09/08 04:38:45;;;;;;;8.10;3.93;;;12.90;99.90;;;;;;5051614;28;20420;-60
2023/09/08 04:41:11;;;;;;;5.67;3.27;;;12.90;99.90;;;;;;5051466;28;20178;-60
2023/09/08 04:43:36;;;;;;;3.97;2.53;;;12.90;99.90;;;;;;5050828;28;20289;-59
2023/09/08 04:46:03;;;;;;;9.53;3.47;;;12.90;99.90;;;;;;5050838;28;20201;-60
2023/09/08 04:48:29;;;;;;;4.40;2.87;;;12.90;99.90;;;;;;5043384;28;20572;-60
2023/09/08 04:50:55;;;;;;;5.53;2.80;;;12.80;99.90;;;;;;5045941;28;20956;-60
2023/09/08 04:53:20;;;;;;;11.40;3.30;;;12.80;99.90;;;;;;5051235;28;20261;-60
2023/09/08 04:55:46;;;;;;;5.60;3.47;;;12.80;99.90;;;;;;5049175;28;20206;-60
2023/09/08 04:58:11;;;;;;;5.20;3.20;;;12.80;99.90;;;;;;5038749;28;20177;-60
2023/09/08 05:00:40;;;;;;;5.53;3.30;;;12.80;99.90;;;;;;5037782;28;20210;-60
2023/09/08 05:03:06;;;;;;;6.23;3.50;;;12.70;99.90;;;;;;5051582;28;20634;-60
2023/09/08 05:05:31;;;;;;;5.43;2.90;;;12.70;99.90;;;;;;5036121;28;20471;-60
2023/09/08 05:07:57;;;;;;;6.27;3.33;;;12.70;99.90;;;;;;5051667;28;20544;-60
2023/09/08 05:10:23;;;;;;;5.17;3.20;;;12.80;99.90;;;;;;5050848;28;20192;-60
2023/09/08 05:12:49;;;;;;;7.63;3.57;;;12.80;99.90;;;;;;5051444;28;20235;-60
2023/09/08 05:15:16;;;;;;;4.80;3.23;;;12.70;99.90;;;;;;5049923;28;20852;-60
2023/09/08 05:17:42;;;;;;;8.80;4.17;;;12.80;99.90;;;;;;5050726;28;20174;-60
2023/09/08 05:20:09;;;;;;;5.23;3.57;;;12.80;99.90;;;;;;5037026;28;20432;-60
2023/09/08 05:22:35;;;;;;;5.40;3.60;;;12.80;99.90;;;;;;5041050;28;20420;-60
2023/09/08 05:25:00;;;;;;;5.43;3.20;;;12.80;99.90;;;;;;5043101;28;20424;-60
2023/09/08 05:27:26;;;;;;;7.97;3.90;;;12.90;99.90;;;;;;5028303;28;20251;-60
2023/09/08 05:29:51;;;;;;;4.43;3.27;;;12.90;99.90;;;;;;5033298;28;20475;-60
2023/09/08 05:32:17;;;;;;;4.97;2.80;;;12.90;99.90;;;;;;5024882;28;20214;-60
2023/09/08 05:34:43;;;;;;;7.67;4.10;;;13.00;99.90;;;;;;5034626;28;20522;-60
2023/09/08 05:37:08;;;;;;;5.57;3.30;;;13.00;99.90;;;;;;5043274;28;20658;-60
2023/09/08 05:39:34;;;;;;;10.10;4.80;;;13.00;99.90;;;;;;5049579;28;20201;-60
2023/09/08 05:42:00;;;;;;;8.83;4.00;;;13.10;99.90;;;;;;5050344;28;20193;-60
2023/09/08 05:44:25;;;;;;;10.03;4.20;;;13.30;99.90;;;;;;5029249;28;20187;-60
2023/09/08 05:46:51;;;;;;;15.70;4.13;;;13.20;99.90;;;;;;5029186;28;20186;-60
2023/09/08 05:49:17;;;;;;;7.50;4.20;;;13.30;99.90;;;;;;5038398;28;20185;-61
2023/09/08 05:51:44;;;;;;;6.70;4.00;;;13.40;99.90;;;;;;5042423;28;20178;-60
2023/09/08 05:54:10;;;;;;;6.60;3.80;;;13.40;99.90;;;;;;5044316;28;20920;-61
2023/09/08 05:56:37;;;;;;;11.73;3.93;;;13.50;99.90;;;;;;5050807;28;20558;-60
2023/09/08 05:59:03;;;;;;;9.20;4.63;;;13.50;99.90;;;;;;5036946;28;20744;-60
2023/09/08 06:01:31;;;;;;;6.30;4.13;;;13.60;99.90;;;;;;5044901;28;20434;-60
2023/09/08 06:03:56;;;;;;;6.70;3.87;;;13.70;99.90;;;;;;5036452;28;20195;-60
2023/09/08 06:06:22;;;;;;;7.90;4.97;;;13.70;99.90;;;;;;5041326;28;20754;-60
2023/09/08 06:08:48;;;;;;;9.10;4.40;;;13.90;99.90;;;;;;5034683;28;20600;-60
2023/09/08 06:11:14;;;;;;;8.83;4.47;;;13.90;99.90;;;;;;5034713;28;20182;-60
2023/09/08 06:13:39;;;;;;;21.23;4.00;;;14.00;99.90;;;;;;5029397;28;20186;-60
2023/09/08 06:16:05;;;;;;;11.57;5.27;;;14.10;99.90;;;;;;5037693;28;20428;-60
2023/09/08 06:18:31;;;;;;;17.37;5.27;;;14.20;99.90;;;;;;5038640;28;20178;-60
2023/09/08 06:20:56;;;;;;;10.90;6.00;;;14.30;99.90;;;;;;5037692;28;20745;-60
2023/09/08 06:23:22;;;;;;;8.50;4.67;;;14.40;99.90;;;;;;5049411;28;20530;-60
2023/09/08 06:25:49;;;;;;;7.80;4.43;;;14.40;99.90;;;;;;5046815;28;20535;-60
2023/09/08 06:28:14;;;;;;;8.50;4.80;;;14.50;99.90;;;;;;5026197;28;20228;-61
2023/09/08 06:30:41;;;;;;;9.03;4.87;;;14.60;99.90;;;;;;5033248;28;20460;-61
2023/09/08 06:33:08;;;;;;;10.10;4.37;;;14.70;99.90;;;;;;5039547;28;20183;-60
2023/09/08 06:35:33;;;;;;;13.60;5.10;;;14.80;99.90;;;;;;5044886;28;20538;-60
2023/09/08 06:38:00;;;;;;;9.73;4.93;;;14.90;99.90;;;;;;5052555;28;20510;-60
2023/09/08 06:40:25;;;;;;;9.80;5.70;;;15.10;99.90;;;;;;5052861;28;20236;-60
2023/09/08 06:42:51;;;;;;;14.23;5.80;;;15.30;99.90;;;;;;5046590;28;20428;-60
2023/09/08 06:45:17;;;;;;;9.43;5.37;;;15.40;99.90;;;;;;5024763;28;20187;-60
2023/09/08 06:47:43;;;;;;;11.10;5.30;;;15.60;99.90;;;;;;5056596;23;20265;-60
2023/09/08 06:50:09;;;;;;;12.30;6.10;;;15.70;99.90;;;;;;5021067;28;20425;-60
2023/09/08 06:52:35;;;;;;;7.37;4.93;;;15.90;99.90;;;;;;5023488;28;20428;-60
2023/09/08 06:55:01;;;;;;;12.10;6.47;;;16.10;99.90;;;;;;5001382;28;20492;-60
2023/09/08 06:57:27;;;;;;;8.97;4.90;;;16.30;99.90;;;;;;5026523;28;20178;-60
2023/09/08 06:59:52;;;;;;;9.93;4.67;;;16.50;99.90;;;;;;5012080;28;20186;-60
2023/09/08 07:02:18;;;;;;;8.90;5.10;;;16.70;99.90;;;;;;5017227;28;20663;-60
2023/09/08 07:04:43;;;;;;;8.20;4.73;;;17.00;99.90;;;;;;5015938;28;20183;-60
2023/09/08 07:07:10;;;;;;;10.87;5.40;;;17.30;99.90;;;;;;5017712;28;20596;-60
2023/09/08 07:09:36;;;;;;;15.13;4.80;;;17.80;99.90;;;;;;5026199;28;20179;-60
2023/09/08 07:12:09;;;;;;;11.97;5.57;;;18.30;99.90;;;;;;5009208;28;20496;-61
2023/09/08 07:14:34;;;;;;;6.77;4.37;;;18.70;99.90;;;;;;5007640;28;20473;-61
2023/09/08 07:17:00;;;;;;;7.67;5.03;;;19.30;99.90;;;;;;5014284;28;20484;-61
2023/09/08 07:19:27;;;;;;;12.07;5.50;;;19.80;99.90;;;;;;5013035;28;20187;-61
2023/09/08 07:21:52;;;;;;;6.70;4.53;;;20.40;99.90;;;;;;5018564;28;20660;-61
2023/09/08 07:24:18;;;;;;;6.83;4.73;;;20.80;99.90;;;;;;5023901;28;20456;-61
2023/09/08 07:26:44;;;;;;;8.60;4.80;;;21.50;99.90;;;;;;5019812;28;20202;-61
2023/09/08 07:29:09;;;;;;;10.60;4.60;;;22.50;99.90;;;;;;5011341;28;20194;-61
2023/09/08 07:31:35;;;;;;;6.80;4.70;;;23.70;99.90;;;;;;5018039;28;20181;-61
2023/09/08 07:34:00;;;;;;;9.77;5.17;;;24.90;99.90;;;;;;5023717;28;20285;-61
2023/09/08 07:36:26;;;;;;;6.30;4.80;;;25.30;99.40;;;;;;5013244;28;20518;-61
2023/09/08 07:38:52;;;;;;;7.27;4.27;;;25.30;99.90;;;;;;5007139;28;20183;-61
2023/09/08 07:41:17;;;;;;;8.03;4.53;;;25.90;98.40;;;;;;5008182;28;20269;-61
2023/09/08 07:43:45;;;;;;;9.47;4.93;;;26.40;97.30;;;;;;5012134;28;20186;-61
2023/09/08 07:46:11;;;;;;;7.10;3.80;;;26.20;97.60;;;;;;5014744;28;20267;-61
2023/09/08 07:48:36;;;;;;;6.70;3.97;;;26.50;96.60;;;;;;5011460;28;20817;-61
2023/09/08 07:51:02;;;;;;;6.87;4.20;;;26.60;96.10;;;;;;5012867;28;20360;-61
2023/09/08 07:53:28;;;;;;;8.20;4.37;;;26.80;95.80;;;;;;5004100;28;20230;-61
2023/09/08 07:55:53;;;;;;;8.90;4.33;;;26.70;95.30;;;;;;5010107;28;20214;-61
2023/09/08 07:58:19;;;;;;;8.63;4.60;;;26.50;95.70;;;;;;5008405;28;20842;-61
2023/09/08 08:00:45;;;;;;;10.37;4.27;;;26.30;96.30;;;;;;5012663;28;20220;-62
2023/09/08 08:03:10;;;;;;;9.77;4.17;;;26.70;95.80;;;;;;5012516;28;20201;-62
2023/09/08 08:05:36;;;;;;;8.67;4.60;;;27.10;95.70;;;;;;5014521;28;20225;-62
2023/09/08 08:08:02;;;;;;;6.78;4.72;;;27.40;95.60;;;;;;5023549;28;20185;-61
2023/09/08 08:10:28;;;;;;;7.82;3.85;;;27.50;95.10;;;;;;5016192;28;20190;-61
2023/09/08 08:12:53;;;;;;;6.63;4.07;;;27.40;94.40;;;;;;5025689;28;20643;-61
2023/09/08 08:15:23;;;;;;;6.32;3.80;;;27.30;94.60;;;;;;5011506;28;20221;-61
2023/09/08 08:17:48;;;;;;;10.30;4.60;;;27.40;94.50;;;;;;5011681;28;20182;-61
2023/09/08 08:20:17;;;;;;;8.93;5.13;;;27.20;94.90;;;;;;5015538;28;20297;-61
2023/09/08 08:22:46;;;;;;;5.70;3.50;;;27.30;94.60;;;;;;5023950;28;20269;-61
2023/09/08 08:25:15;;;;;;;7.07;4.00;;;27.20;94.90;;;;;;5018660;28;20193;-61
2023/09/08 08:27:41;;;;;;;11.82;3.75;;;27.30;94.00;;;;;;5011449;28;20785;-61
2023/09/08 08:30:07;;;;;;;9.30;3.75;;;27.60;94.30;;;;;;5015146;28;20556;-62
2023/09/08 08:32:33;;;;;;;8.05;3.55;;;27.60;94.70;;;;;;5015066;28;20183;-62
2023/09/08 08:34:59;;;;;;;6.75;3.72;;;27.40;94.60;;;;;;5017182;28;20202;-61
2023/09/08 08:37:25;;;;;;;8.10;3.88;;;28.00;93.90;;;;;;5020219;28;20249;-61
2023/09/08 08:39:50;;;;;;;5.93;3.72;;;28.50;93.00;;;;;;5013245;28;20186;-62
2023/09/08 08:42:16;;;;;;;6.32;3.22;;;28.20;93.90;;;;;;5021839;28;20180;-62
2023/09/08 08:44:43;;;;;;;5.47;3.33;;;28.30;93.10;;;;;;5018168;28;20638;-61
2023/09/08 08:47:11;;;;;;;6.72;3.72;;;28.20;93.30;;;;;;5012137;28;20187;-62
2023/09/08 08:49:38;;;;;;;6.10;3.47;;;27.90;94.00;;;;;;5025340;28;20228;-62
2023/09/08 08:52:08;;;;;;;7.32;3.67;;;27.70;94.70;;;;;;5014497;28;20832;-62
2023/09/08 08:54:39;;;;;;;5.22;3.22;;;27.80;94.40;;;;;;5009237;28;20207;-62
2023/09/08 08:57:05;;;;;;;6.15;3.85;;;28.20;93.40;;;;;;5011831;28;20179;-62
2023/09/08 08:59:31;;;;;;;9.07;4.28;;;28.60;92.60;;;;;;5011688;28;20265;-62
2023/09/08 09:01:59;;;;;;;7.03;3.60;;;28.10;93.30;;;;;;5010930;28;20276;-62
2023/09/08 09:04:25;;;;;;;5.75;3.50;;;28.10;93.70;;;;;;5007831;28;20645;-60
2023/09/08 09:06:52;;;;;;;5.90;3.30;;;28.70;93.40;;;;;;5005567;28;20216;-61
2023/09/08 09:09:18;;;;;;;7.20;3.90;;;28.90;92.70;;;;;;5006244;28;20186;-60
2023/09/08 09:11:44;;;;;;;6.82;3.80;;;28.70;92.20;;;;;;5021280;28;20273;-60
2023/09/08 09:14:09;;;;;;;5.85;3.70;;;28.20;93.00;;;;;;5008655;28;20222;-61
2023/09/08 09:16:43;;;;;;;8.50;3.60;;;28.50;92.10;;;;;;5004228;28;20270;-60
2023/09/08 09:19:08;;;;;;;5.35;3.53;;;28.50;92.40;;;;;;5011321;28;20245;-61
2023/09/08 09:21:48;;;;;;;5.15;2.55;;;28.50;93.20;;;;;;5010866;28;20639;-60
2023/09/08 09:24:27;;;;;;;5.30;3.40;;;28.90;91.50;;;;;;5015727;28;20653;-61
2023/09/08 09:26:53;;;;;;;5.38;3.53;;;28.90;91.70;;;;;;5009566;28;20208;-60
2023/09/08 09:29:19;;;;;;;6.38;4.05;;;28.80;91.90;;;;;;5012759;28;20676;-61
2023/09/08 09:31:56;;;;;;;9.73;3.60;;;28.60;93.10;;;;;;5017428;28;20690;-60
2023/09/08 09:34:23;;;;;;;8.80;3.95;;;28.90;91.60;;;;;;5017613;28;20212;-61
2023/09/08 09:36:49;;;;;;;6.57;2.92;;;29.20;91.40;;;;;;5012409;28;20209;-60
2023/09/08 09:39:23;;;;;;;6.38;3.85;;;29.30;92.10;;;;;;5010241;28;20182;-61
2023/09/08 09:41:53;;;;;;;8.18;4.18;;;29.20;92.50;;;;;;5016295;28;20181;-60
2023/09/08 09:44:18;;;;;;;6.15;3.78;;;29.30;90.90;;;;;;5016210;28;20324;-60
2023/09/08 09:46:45;;;;;;;8.50;3.80;;;29.00;91.30;;;;;;5005913;28;20285;-60
2023/09/08 09:49:19;;;;;;;12.88;3.83;;;28.50;92.30;;;;;;5007904;28;20278;-61
2023/09/08 09:51:47;;;;;;;8.10;4.00;;;28.10;92.80;;;;;;5012903;28;20186;-60
2023/09/08 09:54:13;;;;;;;6.70;3.78;;;28.10;91.90;;;;;;5015221;28;20234;-60
2023/09/08 09:56:39;;;;;;;5.30;3.53;;;27.80;93.10;;;;;;5015192;28;20182;-60
2023/09/08 09:59:08;;;;;;;7.60;4.47;;;27.40;93.30;;;;;;5026942;28;20278;-60
2023/09/08 10:01:34;;;;;;;5.90;3.33;;;27.30;94.50;;;;;;5021150;28;20260;-60
2023/09/08 10:04:03;;;;;;;5.40;3.78;;;27.10;94.60;;;;;;5027213;28;20178;-60
2023/09/08 10:06:32;;;;;;;5.68;3.03;;;27.00;95.20;;;;;;5030066;28;20606;-60
2023/09/08 10:09:04;;;;;;;12.55;4.40;;;26.80;94.60;;;;;;5031793;28;20276;-60
2023/09/08 10:11:35;;;;;;;8.47;3.87;;;26.70;94.60;;;;;;5020360;28;20183;-60
2023/09/08 10:14:02;;;;;;;15.70;4.00;;;26.70;94.30;;;;;;5030222;28;20212;-60
2023/09/08 10:16:30;;;;;;;6.60;3.80;;;26.50;94.40;;;;;;5016876;28;20682;-59
2023/09/08 10:18:59;;;;;;;9.57;4.27;;;26.50;94.90;;;;;;5029235;28;20175;-60
2023/09/08 10:21:29;;;;;;;6.30;3.13;;;26.20;95.10;;;;;;5026887;28;20610;-60
2023/09/08 10:24:04;;;;;;;8.23;3.77;;;26.50;94.80;;;;;;5021629;28;20174;-60
2023/09/08 10:26:32;;;;;;;6.13;3.90;;;26.40;95.00;;;;;;5011361;28;20188;-60
2023/09/08 10:28:58;;;;;;;9.80;3.70;;;26.40;94.70;;;;;;5015973;28;20233;-60
2023/09/08 10:31:27;;;;;;;7.80;3.97;;;26.30;94.90;;;;;;5022915;28;20197;-60
2023/09/08 10:33:56;;;;;;;5.80;3.67;;;26.30;94.80;;;;;;5030491;28;20182;-60
2023/09/08 10:36:24;;;;;;;10.37;4.50;;;26.30;95.20;;;;;;5017279;28;20471;-60
2023/09/08 10:38:51;;;;;;;11.30;3.30;;;26.40;94.90;;;;;;5021984;28;20535;-60
2023/09/08 10:41:17;;;;;;;6.23;3.43;;;26.60;94.80;;;;;;5033398;28;20699;-60
2023/09/08 10:43:46;;;;;;;6.03;3.43;;;26.60;95.40;;;;;;5025966;28;20213;-60
2023/09/08 10:46:22;;;;;;;12.40;3.33;;;26.60;94.70;;;;;;5016978;28;20179;-60
2023/09/08 10:48:48;;;;;;;6.53;3.27;;;26.50;94.80;;;;;;5014412;28;20198;-66
2023/09/08 10:51:14;;;;;;;6.73;3.70;;;26.60;94.90;;;;;;5022986;28;20181;-66
2023/09/08 10:53:40;;;;;;;10.20;3.53;;;26.70;93.70;;;;;;5016675;28;20258;-66
2023/09/08 10:56:06;;;;;;;6.70;3.53;;;26.70;93.90;;;;;;5025521;28;20296;-66
2023/09/08 10:58:38;;;;;;;4.83;2.73;;;26.80;93.70;;;;;;5026097;28;20186;-66
2023/09/08 11:01:04;;;;;;;7.80;3.50;;;26.80;95.10;;;;;;5017188;28;20789;-66
2023/09/08 11:03:41;;;;;;;6.63;3.20;;;26.60;94.60;;;;;;5015141;28;20191;-66
2023/09/08 11:06:08;;;;;;;7.50;3.43;;;26.60;95.70;;;;;;5020654;28;20288;-66
2023/09/08 11:08:35;;;;;;;7.10;3.53;;;26.90;95.10;;;;;;5018738;28;20206;-66
2023/09/08 11:11:01;;;;;;;3.77;2.40;;;27.10;94.10;;;;;;5014215;28;20193;-66
2023/09/08 11:13:28;;;;;;;15.33;3.60;;;27.40;93.20;;;;;;5017542;28;20192;-66
2023/09/08 11:15:54;;;;;;;7.43;4.07;;;27.50;93.40;;;;;;5022426;28;20237;-66
2023/09/08 11:18:33;;;;;;;9.70;3.60;;;27.80;93.10;;;;;;5015140;28;20182;-66
2023/09/08 11:21:01;;;;;;;5.63;3.63;;;27.80;93.40;;;;;;5010684;28;20178;-66
2023/09/08 11:23:28;;;;;;;4.80;3.30;;;27.70;92.00;;;;;;5016360;28;20182;-66
2023/09/08 11:25:53;;;;;;;5.43;2.80;;;27.80;92.50;;;;;;5015615;28;20201;-66
2023/09/08 11:28:22;;;;;;;5.03;3.13;;;27.90;91.90;;;;;;5016492;28;20194;-66
2023/09/08 11:30:48;;;;;;;5.38;3.15;;;28.00;91.80;;;;;;5013025;28;20187;-66
2023/09/08 11:33:18;;;;;;;4.72;3.35;;;28.10;93.30;;;;;;5007176;28;20191;-66
2023/09/08 11:35:48;;;;;;;7.70;3.70;;;28.00;92.50;;;;;;5012286;28;20210;-66
2023/09/08 11:38:14;;;;;;;8.40;4.05;;;27.80;93.70;;;;;;5006543;28;20284;-66
2023/09/08 11:40:41;;;;;;;19.95;3.45;;;28.10;91.40;;;;;;5018955;28;20217;-66
2023/09/08 11:43:07;;;;;;;8.50;3.40;;;28.10;92.10;;;;;;5016385;28;20175;-66
2023/09/08 11:45:36;;;;;;;6.55;3.15;;;28.20;91.80;;;;;;5010236;28;20189;-66
2023/09/08 11:48:04;;;;;;;6.90;4.30;;;28.30;93.40;;;;;;5010812;28;20250;-66
2023/09/08 11:50:31;;;;;;;7.55;3.63;;;28.40;93.60;;;;;;5016952;28;20190;-66
2023/09/08 11:52:59;;;;;;;6.68;3.35;;;28.60;91.60;;;;;;5010193;28;20186;-66
2023/09/08 11:55:25;;;;;;;4.13;3.13;;;28.80;90.70;;;;;;5012162;28;20317;-66
2023/09/08 11:57:57;;;;;;;13.48;4.20;;;29.10;90.60;;;;;;5013214;28;20293;-66
2023/09/08 12:00:25;;;;;;;10.32;3.85;;;28.90;92.10;;;;;;5013641;28;20178;-66
2023/09/08 12:02:51;;;;;;;11.85;3.97;;;29.20;91.00;;;;;;5012666;28;20186;-66
2023/09/08 12:05:21;;;;;;;6.93;3.10;;;29.20;89.90;;;;;;5014534;28;20182;-66
2023/09/08 12:07:46;;;;;;;4.70;2.78;;;28.90;89.90;;;;;;5005472;28;20170;-67
2023/09/08 12:10:12;;;;;;;6.90;3.85;;;28.70;89.80;;;;;;5012954;28;20190;-66
2023/09/08 12:12:43;;;;;;;4.78;3.08;;;28.70;88.60;;;;;;5007439;28;20273;-65
2023/09/08 12:15:09;;;;;;;7.47;3.15;;;28.80;88.00;;;;;;5005793;28;20218;-65
2023/09/08 12:17:49;;;;;;;7.53;3.58;;;29.10;87.90;;;;;;5010525;28;20175;-66
2023/09/08 12:20:16;;;;;;;4.93;3.15;;;29.20;88.90;;;;;;5007598;28;20181;-66
2023/09/08 12:22:51;;;;;;;5.25;3.42;;;29.20;88.60;;;;;;5010810;28;20289;-66
2023/09/08 12:25:17;;;;;;;5.07;3.28;;;29.40;88.40;;;;;;5010470;28;20185;-66
2023/09/08 12:27:44;;;;;;;9.63;3.85;;;29.50;87.10;;;;;;5004421;28;20266;-66
2023/09/08 12:30:18;;;;;;;5.68;3.15;;;29.70;88.30;;;;;;5010669;28;20181;-65
2023/09/08 12:32:47;;;;;;;4.53;2.72;;;29.80;84.00;;;;;;5003822;28;20210;-66
2023/09/08 12:35:13;;;;;;;5.55;3.28;;;29.80;84.30;;;;;;5006156;28;20203;-66
2023/09/08 12:37:39;;;;;;;6.15;3.25;;;29.40;86.00;;;;;;5008075;28;20277;-66
2023/09/08 12:40:05;;;;;;;5.82;3.00;;;29.50;84.30;;;;;;5011484;28;20190;-66
2023/09/08 12:42:31;;;;;;;7.45;2.85;;;29.50;86.20;;;;;;5008395;28;20284;-66